Decoded Metar for KCVW ( in ) (IATA:) | Meteo·Mobile Aviation Weather
aviador You're here:

KCVW Decoded Metar

in
Report Time2018-08-22 06:35:00
UTC Time2018-08-22 07:00:52
Flight Rules vfr VFR
Wind300° at 04 kt
W.Rank300° ranks 31
Current wind is below 300° avg. (6.0)
Visibility9999 m
Phenomena:N/A
Clouds:Few 022 Hf
Scattered 033 Hf
Broken 042 Hf
Expected CloudBase > 800 ft AGL from Temp-Dew spread
Ceiling4,200 ft
Temp26°C
Dew Point24°C (89% RH)
QNH1018 hPa
Raw Report
KCVW 220635Z AUTO 30004KT 10SM FEW022 SCT033 BKN042 26/24 A3006
RMK A01=

Extra information for KCVW:More info

Social comments